Warning: Invalid argument supplied for foreach() in /server/czul.ca/includes/prompts.inc.php on line 9

Warning: Invalid argument supplied for foreach() in /server/czul.ca/includes/prompts.inc.php on line 9

Warning: Invalid argument supplied for foreach() in /server/czul.ca/includes/prompts.inc.php on line 9
CZUL - FIR virtuelle de Montréal

CYHZ

Halifax / Stanfield International Airport

{{ICAO_CODE}} CYHZ
{{IATA_CODE}} YHZ
{{NAME}} Halifax / Stanfield International Airport
{{LOCATION}} Halifax, Nova Scotia, CA
{{ELEVATION}} 477 {{FEET}} / 145.4 {{METERS}}
{{LATITUDE}} 44.88079834
{{LONGITUDE}} -63.50859833
{{METAR}} CYHZ 240000Z 17006KT 12SM SKC 17/16 A3028 RMK SLP258
{{EXTRA_INFO}} {{DISPLAY_CHARTS_AND_CFS}}
{{DISPLAY_NOTAMS}}
{{RUNWAY}} {{LENGTH}} {{WIDTH}} {{SURFACE}} {{ELEVATION}}
05 10500 ft 200 ft ASP 449 ft
14 7700 ft 200 ft ASP 435 ft
23 10500 ft 200 ft ASP 443 ft
32 7700 ft 200 ft ASP 476 ft